createdAt,value
2022-11-21T00:00:47.920Z,15.07
2022-11-21T00:03:14.573Z,17.60
2022-11-21T00:05:45.620Z,16.37
2022-11-21T00:08:14.085Z,15.77
2022-11-21T00:10:41.028Z,17.60
2022-11-21T00:13:08.365Z,14.63
2022-11-21T00:15:37.574Z,14.83
2022-11-21T00:18:04.528Z,15.70
2022-11-21T00:20:31.593Z,15.37
2022-11-21T00:22:58.063Z,15.33
2022-11-21T00:25:24.469Z,16.63
2022-11-21T00:27:52.731Z,15.60
2022-11-21T00:30:19.244Z,15.03
2022-11-21T00:32:45.648Z,14.33
2022-11-21T00:35:12.314Z,15.70
2022-11-21T00:37:39.299Z,15.43
2022-11-21T00:40:06.298Z,15.87
2022-11-21T00:42:32.738Z,15.90
2022-11-21T00:44:59.139Z,15.17
2022-11-21T00:47:25.610Z,13.77
2022-11-21T00:49:52.000Z,15.07
2022-11-21T00:52:18.501Z,14.63
2022-11-21T00:54:44.938Z,16.43
2022-11-21T00:57:11.354Z,16.33
2022-11-21T00:59:37.743Z,15.83
2022-11-21T01:02:05.336Z,14.80
2022-11-21T01:04:35.166Z,14.67
2022-11-21T01:07:01.618Z,16.67
2022-11-21T01:09:28.657Z,15.20
2022-11-21T01:11:56.351Z,15.17
2022-11-21T01:14:23.540Z,15.87
2022-11-21T01:16:49.996Z,13.13
2022-11-21T01:19:16.415Z,14.73
2022-11-21T01:21:42.822Z,16.33
2022-11-21T01:24:11.519Z,15.50
2022-11-21T01:26:38.397Z,15.67
2022-11-21T01:29:05.248Z,14.43
2022-11-21T01:31:31.894Z,17.50
2022-11-21T01:33:59.500Z,14.87
2022-11-21T01:36:28.381Z,14.53
2022-11-21T01:38:57.120Z,15.87
2022-11-21T01:41:33.518Z,17.27
2022-11-21T01:44:01.127Z,15.30
2022-11-21T01:46:27.586Z,16.33
2022-11-21T01:49:07.049Z,17.67
2022-11-21T01:51:41.140Z,18.10
2022-11-21T01:54:19.046Z,19.57
2022-11-21T01:57:04.290Z,16.10
2022-11-21T01:59:38.286Z,17.23
2022-11-21T02:02:06.980Z,14.53
2022-11-21T02:04:34.287Z,16.00
2022-11-21T02:07:03.393Z,16.07
2022-11-21T02:09:31.804Z,14.60
2022-11-21T02:12:01.955Z,18.43
2022-11-21T02:14:29.144Z,17.27
2022-11-21T02:16:58.694Z,17.33
2022-11-21T02:19:36.347Z,16.33
2022-11-21T02:22:07.277Z,17.23
2022-11-21T02:24:40.185Z,17.50
2022-11-21T02:27:06.976Z,14.77
2022-11-21T02:29:33.507Z,16.87
2022-11-21T02:32:03.028Z,17.23
2022-11-21T02:34:29.645Z,17.73
2022-11-21T02:36:56.632Z,14.60
2022-11-21T02:39:29.473Z,16.03
2022-11-21T02:42:33.336Z,17.00
2022-11-21T02:45:18.021Z,16.97
2022-11-21T02:47:45.261Z,17.80
2022-11-21T02:50:15.617Z,18.87
2022-11-21T02:52:42.041Z,14.90
2022-11-21T02:55:09.061Z,19.40
2022-11-21T02:57:35.545Z,15.10
2022-11-21T03:00:02.057Z,20.07
2022-11-21T03:02:28.485Z,18.40
2022-11-21T03:04:54.891Z,20.27
2022-11-21T03:07:21.303Z,18.50
2022-11-21T03:09:47.766Z,18.20
2022-11-21T03:12:14.200Z,17.57
2022-11-21T03:14:40.588Z,19.13
2022-11-21T03:17:07.012Z,17.07
2022-11-21T03:19:33.420Z,16.53
2022-11-21T03:21:59.961Z,16.53
2022-11-21T03:24:26.750Z,15.17
2022-11-21T03:26:53.352Z,14.80
2022-11-21T03:29:19.828Z,18.30
2022-11-21T03:31:46.261Z,15.07
2022-11-21T03:34:12.675Z,15.23
2022-11-21T03:36:39.080Z,16.27
2022-11-21T03:39:05.685Z,15.80
2022-11-21T03:41:32.218Z,19.40
2022-11-21T03:44:00.803Z,17.10
2022-11-21T03:46:31.283Z,14.77
2022-11-21T03:48:57.984Z,17.37
2022-11-21T03:51:24.433Z,16.60
2022-11-21T03:53:50.941Z,17.43
2022-11-21T03:56:17.698Z,17.17
2022-11-21T03:58:44.664Z,16.37
2022-11-21T04:01:13.166Z,16.07
2022-11-21T04:03:42.122Z,20.00
2022-11-21T04:06:09.380Z,16.43
2022-11-21T04:08:36.022Z,18.53
2022-11-21T04:11:02.542Z,19.63
2022-11-21T04:13:29.228Z,19.70
2022-11-21T04:15:55.769Z,17.30
2022-11-21T04:18:22.174Z,16.80
2022-11-21T04:20:48.634Z,18.43
2022-11-21T04:23:15.109Z,18.07
2022-11-21T04:25:41.749Z,16.13
2022-11-21T04:28:12.877Z,18.33
2022-11-21T04:30:39.300Z,16.67
2022-11-21T04:33:05.751Z,16.43
2022-11-21T04:35:32.225Z,15.13
2022-11-21T04:37:58.613Z,15.73
2022-11-21T04:40:25.100Z,17.57
2022-11-21T04:42:51.506Z,16.60
2022-11-21T04:45:18.075Z,15.20
2022-11-21T04:47:45.655Z,13.70
2022-11-21T04:50:14.098Z,16.93
2022-11-21T04:52:41.144Z,18.10
2022-11-21T04:55:08.235Z,16.93
2022-11-21T04:57:34.789Z,15.53
2022-11-21T05:00:01.406Z,16.30
2022-11-21T05:02:27.805Z,15.20
2022-11-21T05:04:54.207Z,16.30
2022-11-21T05:07:20.628Z,14.53
2022-11-21T05:09:47.075Z,13.90
2022-11-21T05:12:32.030Z,14.90
2022-11-21T05:14:58.435Z,16.57
2022-11-21T05:17:24.869Z,13.50
2022-11-21T05:19:52.301Z,14.27
2022-11-21T05:22:18.733Z,15.90
2022-11-21T05:24:45.146Z,13.57
2022-11-21T05:27:11.561Z,19.00
2022-11-21T05:29:37.977Z,15.20
2022-11-21T05:32:04.548Z,14.27
2022-11-21T05:34:31.117Z,15.90
2022-11-21T05:37:00.503Z,14.43
2022-11-21T05:39:27.192Z,15.23
2022-11-21T05:41:56.168Z,13.03
2022-11-21T05:44:26.566Z,14.43
2022-11-21T05:46:53.252Z,13.37
2022-11-21T05:49:19.649Z,14.83
2022-11-21T05:51:46.058Z,16.67
2022-11-21T05:54:14.605Z,12.70
2022-11-21T05:56:41.322Z,14.60
2022-11-21T05:59:08.659Z,12.93
2022-11-21T06:01:53.735Z,15.90
2022-11-21T06:04:20.286Z,13.57
2022-11-21T06:06:46.712Z,14.67
2022-11-21T06:09:13.110Z,15.97
2022-11-21T06:11:39.543Z,14.83
2022-11-21T06:14:06.026Z,14.00
2022-11-21T06:16:32.480Z,14.57
2022-11-21T06:18:59.090Z,13.83
2022-11-21T06:21:28.125Z,13.33
2022-11-21T06:23:56.587Z,18.00
2022-11-21T06:26:25.154Z,16.97
2022-11-21T06:28:51.636Z,17.97
2022-11-21T06:31:23.631Z,14.67
2022-11-21T06:33:57.165Z,14.60
2022-11-21T06:36:23.618Z,12.97
2022-11-21T06:38:50.067Z,12.77
2022-11-21T06:41:21.729Z,14.87
2022-11-21T06:43:48.280Z,16.00
2022-11-21T06:46:15.347Z,14.83
2022-11-21T06:48:42.436Z,12.70
2022-11-21T06:51:13.745Z,12.43
2022-11-21T06:53:40.226Z,13.67
2022-11-21T06:56:06.706Z,16.23
2022-11-21T06:58:33.116Z,12.77
2022-11-21T07:01:04.571Z,14.43
2022-11-21T07:03:31.066Z,11.77
2022-11-21T07:06:01.598Z,18.43
2022-11-21T07:08:33.062Z,14.17
2022-11-21T07:11:24.695Z,18.03
2022-11-21T07:13:52.099Z,16.27
2022-11-21T07:16:18.671Z,15.20
2022-11-21T07:18:45.515Z,16.30
2022-11-21T07:21:11.939Z,18.00
2022-11-21T07:23:38.404Z,15.97
2022-11-21T07:26:07.552Z,17.10
2022-11-21T07:28:34.511Z,13.70
2022-11-21T07:31:01.816Z,13.03
2022-11-21T07:33:28.367Z,12.97
2022-11-21T07:35:58.478Z,15.53
2022-11-21T07:38:25.847Z,15.97
2022-11-21T07:40:52.869Z,11.53
2022-11-21T07:43:19.271Z,15.90
2022-11-21T07:45:45.670Z,14.70
2022-11-21T07:48:12.963Z,13.30
2022-11-21T07:50:39.753Z,13.53
2022-11-21T07:53:07.567Z,14.60
2022-11-21T07:55:37.796Z,14.23
2022-11-21T07:58:09.677Z,13.93
2022-11-21T08:00:38.333Z,13.30
2022-11-21T08:03:05.709Z,14.97
2022-11-21T08:05:35.352Z,14.50
2022-11-21T08:08:01.757Z,14.33
2022-11-21T08:10:28.215Z,14.40
2022-11-21T08:12:54.685Z,14.57
2022-11-21T08:15:21.081Z,11.07
2022-11-21T08:17:47.958Z,15.37
2022-11-21T08:20:15.262Z,11.60
2022-11-21T08:22:41.965Z,12.67
2022-11-21T08:25:09.716Z,13.10
2022-11-21T08:27:39.619Z,11.73
2022-11-21T08:30:08.166Z,11.37
2022-11-21T08:32:34.651Z,10.83
2022-11-21T08:35:01.139Z,10.97
2022-11-21T08:37:31.026Z,12.10
2022-11-21T08:39:58.976Z,11.97
2022-11-21T08:42:25.993Z,11.80
2022-11-21T08:44:52.459Z,10.27
2022-11-21T08:47:20.448Z,11.90
2022-11-21T08:49:47.430Z,12.00
2022-11-21T08:52:14.793Z,12.40
2022-11-21T08:54:41.323Z,11.47
2022-11-21T08:57:07.739Z,11.40
2022-11-21T08:59:34.146Z,10.00
2022-11-21T09:02:00.598Z,11.47
2022-11-21T09:04:27.385Z,10.67
2022-11-21T09:06:53.937Z,10.53
2022-11-21T09:09:25.062Z,11.60
2022-11-21T09:11:51.914Z,12.00
2022-11-21T09:14:36.922Z,11.07
2022-11-21T09:17:21.991Z,9.70
2022-11-21T09:19:48.969Z,10.87
2022-11-21T09:22:15.454Z,10.87
2022-11-21T09:24:41.863Z,9.93
2022-11-21T09:27:08.258Z,11.00
2022-11-21T09:29:34.754Z,11.87
2022-11-21T09:32:01.154Z,11.73
2022-11-21T09:34:27.788Z,10.57
2022-11-21T09:36:55.472Z,11.20
2022-11-21T09:39:21.964Z,10.67
2022-11-21T09:41:54.509Z,9.83
2022-11-21T09:44:53.542Z,11.47
2022-11-21T09:47:30.816Z,12.47
2022-11-21T09:50:29.585Z,15.10
2022-11-21T09:53:05.054Z,14.33
2022-11-21T09:55:34.509Z,12.80
2022-11-21T09:58:03.447Z,13.00
2022-11-21T10:00:30.146Z,13.23
2022-11-21T10:02:56.918Z,12.97
2022-11-21T10:05:35.283Z,13.50
2022-11-21T10:08:07.629Z,13.77
2022-11-21T10:10:53.440Z,15.87
2022-11-21T10:13:32.938Z,18.17
2022-11-21T10:16:14.564Z,15.33
2022-11-21T10:19:02.807Z,16.77
2022-11-21T10:21:37.263Z,21.87
2022-11-21T10:24:22.425Z,20.13
2022-11-21T10:27:01.142Z,22.37
2022-11-21T10:29:41.968Z,25.97
2022-11-21T10:32:23.533Z,24.73
2022-11-21T10:34:52.165Z,24.60
2022-11-21T10:37:28.917Z,23.30
2022-11-21T10:39:56.682Z,16.87
2022-11-21T10:42:36.337Z,15.77
2022-11-21T10:45:19.287Z,13.77
2022-11-21T10:47:47.777Z,13.97
2022-11-21T10:50:29.299Z,13.53
2022-11-21T10:53:27.525Z,13.67
2022-11-21T10:56:01.205Z,12.73
2022-11-21T10:58:44.945Z,13.37
2022-11-21T11:01:27.946Z,12.77
2022-11-21T11:06:56.760Z,13.80
2022-11-21T11:09:31.905Z,9.50
2022-11-21T11:12:23.942Z,10.47
2022-11-21T11:14:52.502Z,13.27
2022-11-21T11:17:30.312Z,14.10
2022-11-21T11:20:02.636Z,11.17
2022-11-21T11:22:30.122Z,14.40
2022-11-21T11:25:00.386Z,11.17
2022-11-21T11:27:28.778Z,10.97
2022-11-21T11:29:55.567Z,11.93
2022-11-21T11:32:22.669Z,14.37
2022-11-21T11:35:00.190Z,16.07
2022-11-21T11:37:40.291Z,15.70
2022-11-21T11:40:19.191Z,16.30
2022-11-21T11:43:41.883Z,14.87
2022-11-21T11:46:32.580Z,19.47
2022-11-21T11:49:20.774Z,18.03
2022-11-21T11:52:01.743Z,15.93
2022-11-21T11:54:34.045Z,19.30
2022-11-21T11:57:00.558Z,17.70
2022-11-21T11:59:34.042Z,17.07
2022-11-21T12:02:11.825Z,19.00
2022-11-21T12:04:48.088Z,18.33
2022-11-21T12:10:32.551Z,14.83
2022-11-21T12:13:11.287Z,15.87
2022-11-21T12:15:50.829Z,14.30
2022-11-21T12:18:20.443Z,15.77
2022-11-21T12:20:52.824Z,14.23
2022-11-21T12:23:19.904Z,11.83
2022-11-21T12:26:07.772Z,13.47
2022-11-21T12:28:49.269Z,12.20
2022-11-21T12:31:26.292Z,9.83
2022-11-21T12:34:09.540Z,12.47
2022-11-21T12:37:02.899Z,12.50
2022-11-21T12:39:46.350Z,11.27
2022-11-21T12:42:50.071Z,13.07
2022-11-21T12:45:34.520Z,11.70
2022-11-21T12:48:31.980Z,11.43
2022-11-21T12:51:41.763Z,9.13
2022-11-21T12:54:30.951Z,10.90
2022-11-21T12:57:14.034Z,9.37
2022-11-21T12:59:52.362Z,8.93
2022-11-21T13:02:21.712Z,7.50
2022-11-21T13:04:50.664Z,9.40
2022-11-21T13:07:18.409Z,10.37
2022-11-21T13:09:48.583Z,11.80
2022-11-21T13:12:21.591Z,12.13
2022-11-21T13:14:55.579Z,9.87
2022-11-21T13:17:31.055Z,12.13
2022-11-21T13:20:07.078Z,12.07
2022-11-21T13:22:36.576Z,14.13
2022-11-21T13:25:02.882Z,13.80
2022-11-21T13:27:33.529Z,17.70
2022-11-21T13:30:07.329Z,15.80
2022-11-21T13:32:41.824Z,16.87
2022-11-21T13:35:14.982Z,18.47
2022-11-21T13:38:04.526Z,17.20
2022-11-21T13:40:30.828Z,16.97
2022-11-21T13:43:34.139Z,16.93
2022-11-21T13:46:01.551Z,17.07
2022-11-21T13:48:37.111Z,14.53
2022-11-21T13:51:09.595Z,12.13
2022-11-21T13:53:53.713Z,13.40
2022-11-21T13:56:45.395Z,12.43
2022-11-21T13:59:20.734Z,12.43
2022-11-21T14:01:59.270Z,12.77
2022-11-21T14:04:44.192Z,13.87
2022-11-21T14:07:31.400Z,13.63
2022-11-21T14:09:59.825Z,12.10
2022-11-21T14:12:39.633Z,10.80
2022-11-21T14:15:34.726Z,10.23
2022-11-21T14:18:01.291Z,13.37
2022-11-21T14:20:30.220Z,8.73
2022-11-21T14:23:05.290Z,9.87
2022-11-21T14:25:40.665Z,9.20
2022-11-21T14:28:11.231Z,6.33
2022-11-21T14:30:40.058Z,6.63
2022-11-21T14:33:28.172Z,7.10
2022-11-21T14:36:06.645Z,8.60
2022-11-21T14:38:36.619Z,7.70
2022-11-21T14:41:24.268Z,8.70
2022-11-21T14:43:57.197Z,8.07
2022-11-21T14:46:25.474Z,5.23
2022-11-21T14:48:54.791Z,7.17
2022-11-21T14:51:25.948Z,6.17
2022-11-21T14:53:53.615Z,8.40
2022-11-21T14:56:26.239Z,6.13
2022-11-21T14:58:53.864Z,7.07
2022-11-21T15:01:22.459Z,8.10
2022-11-21T15:04:01.079Z,8.47
2022-11-21T15:06:29.697Z,8.03
2022-11-21T15:10:11.632Z,8.00
2022-11-21T15:11:56.570Z,6.73
2022-11-21T15:14:27.975Z,5.80
2022-11-21T15:16:55.504Z,7.00
2022-11-21T15:19:27.866Z,8.87
2022-11-21T15:21:56.765Z,11.77
2022-11-21T15:24:30.829Z,7.40
2022-11-21T15:26:58.430Z,10.73
2022-11-21T15:29:25.152Z,7.47
2022-11-21T15:32:16.249Z,8.20
2022-11-21T15:34:43.419Z,8.07
2022-11-21T15:37:16.241Z,8.47
2022-11-21T15:39:44.323Z,7.70
2022-11-21T15:42:32.716Z,7.27
2022-11-21T15:45:20.760Z,7.47
2022-11-21T15:47:47.549Z,10.30
2022-11-21T15:50:14.807Z,8.43
2022-11-21T15:52:48.726Z,8.50
2022-11-21T15:55:20.442Z,7.37
2022-11-21T15:57:47.023Z,9.03
2022-11-21T16:00:15.224Z,10.77
2022-11-21T16:02:41.707Z,10.90
2022-11-21T16:05:11.624Z,9.43
2022-11-21T16:07:38.092Z,12.40
2022-11-21T16:10:05.097Z,10.53
2022-11-21T16:12:31.557Z,11.03
2022-11-21T16:14:57.962Z,11.07
2022-11-21T16:17:24.553Z,11.60
2022-11-21T16:19:50.940Z,11.60
2022-11-21T16:22:17.362Z,13.07
2022-11-21T16:24:43.748Z,11.93
2022-11-21T16:27:10.170Z,12.47
2022-11-21T16:29:36.747Z,12.90
2022-11-21T16:32:03.170Z,13.03
2022-11-21T16:34:29.667Z,13.93
2022-11-21T16:36:56.184Z,14.00
2022-11-21T16:39:22.584Z,13.40
2022-11-21T16:41:49.337Z,11.27
2022-11-21T16:44:16.428Z,13.73
2022-11-21T16:46:45.209Z,15.73
2022-11-21T16:49:11.610Z,15.70
2022-11-21T16:51:38.141Z,14.07
2022-11-21T16:54:08.837Z,16.73
2022-11-21T16:56:35.922Z,14.23
2022-11-21T16:59:02.458Z,17.37
2022-11-21T17:01:28.933Z,15.03
2022-11-21T17:03:55.380Z,16.47
2022-11-21T17:06:24.338Z,16.90
2022-11-21T17:08:51.068Z,19.80
2022-11-21T17:11:22.570Z,20.97
2022-11-21T17:13:50.362Z,19.73
2022-11-21T17:16:19.059Z,21.17
2022-11-21T17:18:45.767Z,21.17
2022-11-21T17:21:15.845Z,18.83
2022-11-21T17:23:44.220Z,20.93
2022-11-21T17:26:12.862Z,24.43
2022-11-21T17:28:45.053Z,24.83
2022-11-21T17:31:14.435Z,23.73
2022-11-21T17:33:41.193Z,20.07
2022-11-21T17:36:11.569Z,18.13
2022-11-21T17:38:38.537Z,20.60
2022-11-21T17:41:07.051Z,19.57
2022-11-21T17:43:34.196Z,23.73
2022-11-21T17:46:10.402Z,18.83
2022-11-21T17:48:37.306Z,21.50
2022-11-21T17:51:06.558Z,20.00
2022-11-21T17:53:34.847Z,22.73
2022-11-21T17:56:02.060Z,21.03
2022-11-21T17:58:29.155Z,22.60
2022-11-21T18:01:00.371Z,20.10
2022-11-21T18:03:27.676Z,21.00
2022-11-21T18:06:06.064Z,24.43
2022-11-21T18:08:33.667Z,26.97
2022-11-21T18:11:00.276Z,26.40
2022-11-21T18:13:28.243Z,24.90
2022-11-21T18:15:55.028Z,26.53
2022-11-21T18:18:22.186Z,29.37
2022-11-21T18:20:48.617Z,26.73
2022-11-21T18:23:15.065Z,30.00
2022-11-21T18:25:41.690Z,29.27
2022-11-21T18:28:08.273Z,31.10
2022-11-21T18:30:34.802Z,27.03
2022-11-21T18:33:01.301Z,32.53
2022-11-21T18:35:27.762Z,33.07
2022-11-21T18:37:55.570Z,33.33
2022-11-21T18:40:22.101Z,30.90
2022-11-21T18:42:48.546Z,30.70
2022-11-21T18:45:14.969Z,31.13
2022-11-21T18:47:41.755Z,34.57
2022-11-21T18:50:08.450Z,31.90
2022-11-21T18:52:37.630Z,30.53
2022-11-21T18:55:07.435Z,28.03
2022-11-21T18:57:33.852Z,31.87
2022-11-21T19:00:00.344Z,33.53
2022-11-21T19:02:26.776Z,30.17
2022-11-21T19:04:53.246Z,33.50
2022-11-21T19:07:19.701Z,29.57
2022-11-21T19:09:46.526Z,31.10
2022-11-21T19:12:13.016Z,27.67
2022-11-21T19:14:39.667Z,28.57
2022-11-21T19:17:06.113Z,30.63
2022-11-21T19:19:34.736Z,29.17
2022-11-21T19:22:04.110Z,25.90
2022-11-21T19:24:30.518Z,26.93
2022-11-21T19:26:56.983Z,26.13
2022-11-21T19:29:23.406Z,24.67
2022-11-21T19:31:49.831Z,28.47
2022-11-21T19:34:16.817Z,26.67
2022-11-21T19:36:44.258Z,25.80
2022-11-21T19:39:11.203Z,29.40
2022-11-21T19:41:37.642Z,22.57
2022-11-21T19:44:04.243Z,25.60
2022-11-21T19:46:33.087Z,28.67
2022-11-21T19:49:00.475Z,21.27
2022-11-21T19:51:35.359Z,22.47
2022-11-21T19:54:03.058Z,25.27
2022-11-21T19:56:29.475Z,26.30
2022-11-21T19:58:56.832Z,20.43
2022-11-21T20:01:25.348Z,27.07
2022-11-21T20:03:54.464Z,22.30
2022-11-21T20:06:23.894Z,23.77
2022-11-21T20:08:55.265Z,21.73
2022-11-21T20:11:22.745Z,23.20
2022-11-21T20:13:49.773Z,21.13
2022-11-21T20:16:24.543Z,24.27
2022-11-21T20:18:51.794Z,21.13
2022-11-21T20:21:19.114Z,21.13
2022-11-21T20:23:46.667Z,21.07
2022-11-21T20:26:13.818Z,21.87
2022-11-21T20:28:40.503Z,22.60
2022-11-21T20:31:28.196Z,20.70
2022-11-21T20:34:00.711Z,20.97
2022-11-21T20:36:29.300Z,23.27
2022-11-21T20:39:00.413Z,22.67
2022-11-21T20:41:28.891Z,22.87
2022-11-21T20:44:44.627Z,17.93
2022-11-21T20:46:43.231Z,22.90
2022-11-21T20:49:09.680Z,21.53
2022-11-21T20:53:20.570Z,20.97
2022-11-21T20:54:22.632Z,21.87
2022-11-21T20:56:49.031Z,18.90
2022-11-21T20:59:15.609Z,19.57
2022-11-21T21:01:42.090Z,19.67
2022-11-21T21:04:12.103Z,22.87
2022-11-21T21:06:39.503Z,18.53
2022-11-21T21:09:06.005Z,17.47
2022-11-21T21:14:18.830Z,21.33
2022-11-21T21:16:45.245Z,20.17
2022-11-21T21:19:12.631Z,21.50
2022-11-21T21:21:41.324Z,21.43
2022-11-21T21:24:09.902Z,21.00
2022-11-21T21:26:42.157Z,19.57
2022-11-21T21:29:11.697Z,20.73
2022-11-21T21:31:38.148Z,21.80
2022-11-21T21:34:04.594Z,21.57
2022-11-21T21:36:32.051Z,19.33
2022-11-21T21:38:59.800Z,22.80
2022-11-21T21:41:28.082Z,24.67
2022-11-21T21:43:55.678Z,23.27
2022-11-21T21:46:24.834Z,22.80
2022-11-21T21:48:54.600Z,22.63
2022-11-21T21:51:23.229Z,23.33
2022-11-21T21:53:50.788Z,24.53
2022-11-21T21:56:18.383Z,23.33
2022-11-21T21:58:46.146Z,24.03
2022-11-21T22:01:23.333Z,22.27
2022-11-21T22:03:53.656Z,26.37
2022-11-21T22:06:20.159Z,25.43
2022-11-21T22:08:47.886Z,24.67
2022-11-21T22:11:25.790Z,24.30
2022-11-21T22:13:54.407Z,24.90
2022-11-21T22:16:20.834Z,26.03
2022-11-21T22:18:47.510Z,23.47
2022-11-21T22:21:25.295Z,25.93
2022-11-21T22:24:17.660Z,23.93
2022-11-21T22:26:38.468Z,23.13
2022-11-21T22:29:05.236Z,22.77
2022-11-21T22:31:31.671Z,24.93
2022-11-21T22:33:58.711Z,22.00
2022-11-21T22:36:25.140Z,24.33
2022-11-21T22:38:56.092Z,22.07
2022-11-21T22:41:26.662Z,25.50
2022-11-21T22:43:57.711Z,25.53
2022-11-21T22:46:25.815Z,24.27
2022-11-21T22:48:52.250Z,24.50
2022-11-21T22:51:20.979Z,23.87
2022-11-21T22:53:47.919Z,25.30
2022-11-21T22:56:16.262Z,23.03
2022-11-21T22:58:42.651Z,25.93
2022-11-21T23:01:14.531Z,29.00
2022-11-21T23:03:43.744Z,24.00
2022-11-21T23:06:12.098Z,26.40
2022-11-21T23:08:39.533Z,27.70
2022-11-21T23:11:10.104Z,25.50
2022-11-21T23:13:37.406Z,25.20
2022-11-21T23:16:05.155Z,23.50
2022-11-21T23:18:32.185Z,20.20
2022-11-21T23:20:58.885Z,26.63
2022-11-21T23:23:25.556Z,23.60
2022-11-21T23:25:52.414Z,23.97
2022-11-21T23:28:18.855Z,22.67
2022-11-21T23:30:47.505Z,22.47
2022-11-21T23:33:14.504Z,25.73
2022-11-21T23:35:42.393Z,25.13
2022-11-21T23:38:09.391Z,21.23
2022-11-21T23:40:35.833Z,24.20
2022-11-21T23:43:02.337Z,24.27
2022-11-21T23:45:29.052Z,25.70
2022-11-21T23:47:55.441Z,24.37
2022-11-21T23:50:21.869Z,26.43
2022-11-21T23:52:48.355Z,23.03
2022-11-21T23:55:15.505Z,27.70
2022-11-21T23:57:41.931Z,24.27
